createdAt,value
2023-01-03T00:00:51.284Z,102146.03
2023-01-03T00:03:19.177Z,102141.78
2023-01-03T00:05:49.659Z,102143.56
2023-01-03T00:08:17.549Z,102149.53
2023-01-03T00:10:45.421Z,102154.84
2023-01-03T00:13:12.371Z,102151.38
2023-01-03T00:15:41.413Z,102155.03
2023-01-03T00:18:09.282Z,102169.97
2023-01-03T00:20:37.138Z,102169.28
2023-01-03T00:23:06.568Z,102172.00
2023-01-03T00:25:34.627Z,102180.38
2023-01-03T00:28:02.525Z,102174.50
2023-01-03T00:30:30.427Z,102183.72
2023-01-03T00:32:58.468Z,102195.34
2023-01-03T00:35:26.532Z,102189.19
2023-01-03T00:37:54.742Z,102193.91
2023-01-03T00:40:24.191Z,102200.75
2023-01-03T00:43:09.798Z,102204.31
2023-01-03T00:45:37.685Z,102205.88
2023-01-03T00:48:06.171Z,102213.56
2023-01-03T00:50:34.172Z,102218.81
2023-01-03T00:53:02.125Z,102218.81
2023-01-03T00:55:31.323Z,102223.47
2023-01-03T00:57:59.187Z,102228.19
2023-01-03T01:00:27.453Z,102225.53
2023-01-03T01:02:55.683Z,102231.66
2023-01-03T01:05:25.944Z,102234.16
2023-01-03T01:07:53.862Z,102238.47
2023-01-03T01:10:22.073Z,102238.03
2023-01-03T01:12:55.568Z,102238.25
2023-01-03T01:15:23.986Z,102242.75
2023-01-03T01:17:51.836Z,102249.78
2023-01-03T01:20:19.892Z,102242.69
2023-01-03T01:22:47.671Z,102247.28
2023-01-03T01:25:17.195Z,102257.91
2023-01-03T01:27:45.273Z,102260.69
2023-01-03T01:30:14.459Z,102262.72
2023-01-03T01:32:42.234Z,102265.81
2023-01-03T01:35:10.826Z,102269.66
2023-01-03T01:37:38.651Z,102265.13
2023-01-03T01:40:08.835Z,102269.03
2023-01-03T01:42:54.363Z,102265.66
2023-01-03T01:45:23.911Z,102279.97
2023-01-03T01:47:55.422Z,102278.38
2023-01-03T01:50:27.356Z,102281.09
2023-01-03T01:52:59.443Z,102282.72
2023-01-03T01:55:40.181Z,102280.88
2023-01-03T01:58:10.004Z,102286.31
2023-01-03T02:00:40.375Z,102279.25
2023-01-03T02:03:08.946Z,102283.63
2023-01-03T02:05:40.683Z,102277.50
2023-01-03T02:08:08.517Z,102284.66
2023-01-03T02:10:56.129Z,102290.13
2023-01-03T02:13:29.706Z,102293.88
2023-01-03T02:16:12.121Z,102293.88
2023-01-03T02:18:49.253Z,102296.38
2023-01-03T02:21:44.153Z,102299.16
2023-01-03T02:24:41.437Z,102294.75
2023-01-03T02:27:29.358Z,102306.00
2023-01-03T02:30:23.876Z,102314.66
2023-01-03T02:32:56.164Z,102312.25
2023-01-03T02:35:31.787Z,102327.97
2023-01-03T02:38:06.850Z,102320.97
2023-01-03T02:40:40.587Z,102331.63
2023-01-03T02:43:15.576Z,102328.06
2023-01-03T02:45:57.925Z,102336.94
2023-01-03T02:48:37.969Z,102337.88
2023-01-03T02:51:14.141Z,102332.81
2023-01-03T02:53:45.459Z,102336.31
2023-01-03T02:56:18.846Z,102333.94
2023-01-03T02:58:50.649Z,102335.75
2023-01-03T03:01:21.102Z,102337.66
2023-01-03T03:03:50.011Z,102337.56
2023-01-03T03:06:26.483Z,102337.50
2023-01-03T03:08:54.363Z,102335.94
2023-01-03T03:11:41.175Z,102335.03
2023-01-03T03:14:17.748Z,102339.44
2023-01-03T03:16:51.235Z,102339.75
2023-01-03T03:19:45.270Z,102341.59
2023-01-03T03:22:41.547Z,102344.84
2023-01-03T03:25:14.102Z,102342.34
2023-01-03T03:28:03.865Z,102352.22
2023-01-03T03:30:34.920Z,102349.63
2023-01-03T03:33:06.641Z,102359.31
2023-01-03T03:35:40.670Z,102360.28
2023-01-03T03:38:11.929Z,102362.88
2023-01-03T03:41:05.817Z,102367.28
2023-01-03T03:43:55.818Z,102368.34
2023-01-03T03:46:30.978Z,102366.78
2023-01-03T03:49:23.316Z,102372.88
2023-01-03T03:51:52.003Z,102377.34
2023-01-03T03:54:23.795Z,102376.53
2023-01-03T03:57:02.957Z,102384.41
2023-01-03T03:59:32.686Z,102380.03
2023-01-03T04:02:04.506Z,102377.38
2023-01-03T04:04:39.108Z,102388.84
2023-01-03T04:07:07.134Z,102382.81
2023-01-03T04:09:35.144Z,102382.09
2023-01-03T04:12:03.105Z,102384.84
2023-01-03T04:14:31.199Z,102386.50
2023-01-03T04:16:59.098Z,102379.22
2023-01-03T04:19:27.098Z,102387.97
2023-01-03T04:21:56.379Z,102391.63
2023-01-03T04:24:24.938Z,102391.75
2023-01-03T04:26:52.964Z,102396.16
2023-01-03T04:29:20.828Z,102399.78
2023-01-03T04:31:48.810Z,102405.13
2023-01-03T04:34:16.713Z,102404.22
2023-01-03T04:36:44.521Z,102403.47
2023-01-03T04:39:13.877Z,102399.16
2023-01-03T04:41:41.866Z,102400.03
2023-01-03T04:44:09.399Z,102411.50
2023-01-03T04:46:38.514Z,102406.25
2023-01-03T04:49:08.565Z,102407.09
2023-01-03T04:51:36.825Z,102407.03
2023-01-03T04:54:06.072Z,102414.09
2023-01-03T04:56:37.933Z,102408.88
2023-01-03T04:59:06.404Z,102415.97
2023-01-03T05:01:34.353Z,102418.66
2023-01-03T05:04:04.983Z,102418.75
2023-01-03T05:06:32.904Z,102422.09
2023-01-03T05:09:00.724Z,102431.09
2023-01-03T05:11:28.667Z,102425.78
2023-01-03T05:13:58.000Z,102425.81
2023-01-03T05:16:25.893Z,102432.09
2023-01-03T05:18:54.370Z,102438.34
2023-01-03T05:21:41.178Z,102435.72
2023-01-03T05:24:29.027Z,102433.91
2023-01-03T05:26:57.691Z,102440.84
2023-01-03T05:29:28.741Z,102438.06
2023-01-03T05:31:57.283Z,102437.22
2023-01-03T05:34:25.152Z,102438.06
2023-01-03T05:36:53.312Z,102439.75
2023-01-03T05:39:21.144Z,102440.50
2023-01-03T05:42:01.496Z,102443.06
2023-01-03T05:44:32.184Z,102444.88
2023-01-03T05:47:00.687Z,102449.34
2023-01-03T05:49:28.861Z,102439.63
2023-01-03T05:51:56.844Z,102447.78
2023-01-03T05:54:24.853Z,102448.69
2023-01-03T05:56:52.795Z,102454.84
2023-01-03T05:59:21.201Z,102451.41
2023-01-03T06:01:50.775Z,102466.44
2023-01-03T06:04:18.857Z,102462.03
2023-01-03T06:06:46.796Z,102461.22
2023-01-03T06:09:14.875Z,102462.94
2023-01-03T06:11:42.783Z,102464.78
2023-01-03T06:14:10.679Z,102472.75
2023-01-03T06:16:56.085Z,102470.22
2023-01-03T06:19:25.381Z,102468.47
2023-01-03T06:21:53.207Z,102479.94
2023-01-03T06:24:21.125Z,102471.91
2023-01-03T06:26:49.057Z,102472.06
2023-01-03T06:29:17.234Z,102475.56
2023-01-03T06:31:45.605Z,102477.31
2023-01-03T06:34:13.499Z,102467.72
2023-01-03T06:36:43.003Z,102475.75
2023-01-03T06:39:11.400Z,102477.63
2023-01-03T06:41:39.365Z,102481.94
2023-01-03T06:44:07.241Z,102478.38
2023-01-03T06:46:52.363Z,102487.84
2023-01-03T06:49:37.905Z,102494.84
2023-01-03T06:52:31.188Z,102503.69
2023-01-03T06:54:59.335Z,102516.03
2023-01-03T06:57:27.652Z,102514.06
2023-01-03T06:59:56.382Z,102517.34
2023-01-03T07:02:24.826Z,102524.34
2023-01-03T07:04:53.032Z,102519.06
2023-01-03T07:07:22.652Z,102518.06
2023-01-03T07:09:50.641Z,102534.88
2023-01-03T07:12:37.696Z,102533.84
2023-01-03T07:15:06.766Z,102533.13
2023-01-03T07:17:34.729Z,102534.97
2023-01-03T07:20:03.182Z,102544.47
2023-01-03T07:22:32.812Z,102550.69
2023-01-03T07:25:00.918Z,102548.97
2023-01-03T07:27:29.005Z,102553.38
2023-01-03T07:29:56.913Z,102549.88
2023-01-03T07:32:24.858Z,102550.94
2023-01-03T07:34:52.867Z,102551.81
2023-01-03T07:37:20.822Z,102560.72
2023-01-03T07:39:50.218Z,102556.88
2023-01-03T07:42:35.693Z,102557.84
2023-01-03T07:45:03.748Z,102564.09
2023-01-03T07:47:31.559Z,102571.97
2023-01-03T07:49:59.506Z,102573.59
2023-01-03T07:52:28.811Z,102578.78
2023-01-03T07:54:58.004Z,102577.72
2023-01-03T07:57:25.969Z,102580.25
2023-01-03T07:59:53.789Z,102583.66
2023-01-03T08:02:21.719Z,102587.84
2023-01-03T08:04:49.632Z,102578.09
2023-01-03T08:07:17.530Z,102594.88
2023-01-03T08:10:03.098Z,102591.72
2023-01-03T08:12:49.599Z,102593.44
2023-01-03T08:15:17.661Z,102598.75
2023-01-03T08:17:45.441Z,102587.69
2023-01-03T08:20:13.321Z,102594.97
2023-01-03T08:22:41.146Z,102599.28
2023-01-03T08:25:09.850Z,102602.78
2023-01-03T08:27:41.803Z,102599.38
2023-01-03T08:30:13.347Z,102600.16
2023-01-03T08:32:41.196Z,102599.53
2023-01-03T08:35:11.261Z,102597.81
2023-01-03T08:37:39.317Z,102611.16
2023-01-03T08:40:08.658Z,102606.59
2023-01-03T08:42:38.418Z,102618.84
2023-01-03T08:45:10.762Z,102610.06
2023-01-03T08:47:38.976Z,102610.84
2023-01-03T08:50:08.020Z,102611.75
2023-01-03T08:52:36.107Z,102618.81
2023-01-03T08:55:04.307Z,102623.16
2023-01-03T08:57:32.413Z,102617.72
2023-01-03T09:00:01.865Z,102627.47
2023-01-03T09:02:29.897Z,102627.38
2023-01-03T09:04:59.351Z,102631.47
2023-01-03T09:07:27.444Z,102633.78
2023-01-03T09:09:55.310Z,102636.34
2023-01-03T09:12:23.286Z,102633.59
2023-01-03T09:14:51.127Z,102637.09
2023-01-03T09:17:21.482Z,102640.84
2023-01-03T09:19:49.467Z,102638.22
2023-01-03T09:22:17.334Z,102647.09
2023-01-03T09:24:45.191Z,102647.25
2023-01-03T09:27:13.485Z,102649.22
2023-01-03T09:29:41.404Z,102662.44
2023-01-03T09:32:09.373Z,102662.59
2023-01-03T09:34:38.784Z,102658.28
2023-01-03T09:37:06.673Z,102667.78
2023-01-03T09:39:35.089Z,102662.41
2023-01-03T09:42:20.388Z,102668.66
2023-01-03T09:44:48.717Z,102669.69
2023-01-03T09:47:21.421Z,102668.63
2023-01-03T09:50:26.755Z,102677.72
2023-01-03T09:53:03.274Z,102676.66
2023-01-03T09:55:55.240Z,102680.09
2023-01-03T09:58:40.586Z,102672.44
2023-01-03T10:01:42.377Z,102676.91
2023-01-03T10:04:37.859Z,102678.63
2023-01-03T10:07:16.243Z,102678.44
2023-01-03T10:09:54.408Z,102679.25
2023-01-03T10:12:30.232Z,102675.56
2023-01-03T10:15:13.161Z,102683.41
2023-01-03T10:17:53.735Z,102688.19
2023-01-03T10:20:34.751Z,102687.00
2023-01-03T10:23:07.875Z,102684.94
2023-01-03T10:25:40.071Z,102678.56
2023-01-03T10:28:17.232Z,102676.63
2023-01-03T10:31:19.896Z,102678.09
2023-01-03T10:33:49.868Z,102673.50
2023-01-03T10:36:20.629Z,102682.06
2023-01-03T10:38:53.337Z,102667.69
2023-01-03T10:41:24.736Z,102653.34
2023-01-03T10:44:01.541Z,102661.53
2023-01-03T10:46:31.086Z,102659.59
2023-01-03T10:49:31.459Z,102656.91
2023-01-03T10:52:03.954Z,102656.94
2023-01-03T10:54:50.376Z,102653.56
2023-01-03T10:57:46.132Z,102656.06
2023-01-03T11:00:26.588Z,102648.94
2023-01-03T11:02:56.583Z,102655.06
2023-01-03T11:05:26.711Z,102661.13
2023-01-03T11:07:57.012Z,102656.56
2023-01-03T11:10:35.038Z,102655.69
2023-01-03T11:13:03.156Z,102656.88
2023-01-03T11:15:39.298Z,102663.19
2023-01-03T11:18:17.421Z,102656.09
2023-01-03T11:20:50.791Z,102661.53
2023-01-03T11:23:26.195Z,102658.06
2023-01-03T11:26:04.064Z,102649.53
2023-01-03T11:29:05.567Z,102651.22
2023-01-03T11:31:43.111Z,102649.81
2023-01-03T11:34:37.795Z,102648.72
2023-01-03T11:37:25.802Z,102649.50
2023-01-03T11:40:08.700Z,102646.97
2023-01-03T11:42:51.526Z,102637.97
2023-01-03T11:45:44.784Z,102630.81
2023-01-03T11:48:54.090Z,102628.16
2023-01-03T11:51:31.136Z,102626.34
2023-01-03T11:54:05.422Z,102619.22
2023-01-03T11:56:37.411Z,102618.94
2023-01-03T11:59:20.387Z,102613.47
2023-01-03T12:02:32.912Z,102609.94
2023-01-03T12:05:15.012Z,102617.00
2023-01-03T12:07:56.343Z,102617.69
2023-01-03T12:10:31.731Z,102611.59
2023-01-03T12:13:09.924Z,102618.53
2023-01-03T12:15:45.826Z,102623.06
2023-01-03T12:18:22.192Z,102625.72
2023-01-03T12:20:56.160Z,102621.19
2023-01-03T12:23:34.637Z,102620.19
2023-01-03T12:26:06.533Z,102610.56
2023-01-03T12:28:39.987Z,102612.34
2023-01-03T12:31:22.340Z,102607.75
2023-01-03T12:34:04.022Z,102614.88
2023-01-03T12:36:43.248Z,102612.47
2023-01-03T12:39:33.583Z,102617.56
2023-01-03T12:42:07.884Z,102614.06
2023-01-03T12:44:40.128Z,102613.06
2023-01-03T12:47:21.555Z,102612.13
2023-01-03T12:49:55.155Z,102609.59
2023-01-03T12:52:25.576Z,102607.91
2023-01-03T12:54:57.665Z,102597.28
2023-01-03T12:57:57.073Z,102602.44
2023-01-03T13:00:42.992Z,102598.00
2023-01-03T13:03:21.408Z,102599.91
2023-01-03T13:05:53.349Z,102585.66
2023-01-03T13:08:32.976Z,102593.53
2023-01-03T13:11:05.765Z,102583.78
2023-01-03T13:13:35.878Z,102584.13
2023-01-03T13:16:43.172Z,102582.34
2023-01-03T13:19:55.830Z,102579.53
2023-01-03T13:22:47.585Z,102577.72
2023-01-03T13:25:41.546Z,102581.31
2023-01-03T13:28:31.297Z,102578.78
2023-01-03T13:31:48.230Z,102566.50
2023-01-03T13:34:33.148Z,102573.63
2023-01-03T13:37:17.823Z,102571.72
2023-01-03T13:40:21.735Z,102567.06
2023-01-03T13:43:01.362Z,102573.47
2023-01-03T13:45:55.191Z,102568.06
2023-01-03T13:48:41.216Z,102569.72
2023-01-03T13:51:50.671Z,102565.13
2023-01-03T13:54:50.421Z,102560.72
2023-01-03T13:57:36.398Z,102560.63
2023-01-03T14:00:11.183Z,102570.38
2023-01-03T14:03:15.520Z,102569.53
2023-01-03T14:06:06.716Z,102573.22
2023-01-03T14:08:54.743Z,102569.78
2023-01-03T14:11:36.179Z,102573.22
2023-01-03T14:14:10.689Z,102569.63
2023-01-03T14:16:46.744Z,102558.03
2023-01-03T14:19:22.312Z,102557.28
2023-01-03T14:21:54.675Z,102560.72
2023-01-03T14:24:27.517Z,102562.28
2023-01-03T14:27:04.171Z,102556.00
2023-01-03T14:29:32.495Z,102554.09
2023-01-03T14:32:00.656Z,102553.16
2023-01-03T14:34:36.817Z,102555.53
2023-01-03T14:37:07.626Z,102560.75
2023-01-03T14:42:08.902Z,102562.53
2023-01-03T14:44:36.900Z,102566.94
2023-01-03T14:47:08.590Z,102560.75
2023-01-03T14:49:43.969Z,102559.75
2023-01-03T14:52:19.553Z,102556.94
2023-01-03T14:54:51.908Z,102557.75
2023-01-03T14:57:25.221Z,102560.22
2023-01-03T14:59:54.574Z,102554.84
2023-01-03T15:02:23.045Z,102559.19
2023-01-03T15:04:53.696Z,102563.53
2023-01-03T15:07:31.969Z,102567.09
2023-01-03T15:10:08.337Z,102557.41
2023-01-03T15:12:41.992Z,102563.47
2023-01-03T15:15:20.859Z,102559.00
2023-01-03T15:17:50.756Z,102559.13
2023-01-03T15:20:20.810Z,102554.84
2023-01-03T15:22:48.856Z,102565.53
2023-01-03T15:25:20.738Z,102557.28
2023-01-03T15:27:51.379Z,102559.97
2023-01-03T15:30:23.663Z,102563.38
2023-01-03T15:32:55.734Z,102564.22
2023-01-03T15:35:30.591Z,102569.53
2023-01-03T15:38:00.315Z,102570.47
2023-01-03T15:40:30.856Z,102560.50
2023-01-03T15:43:22.118Z,102561.25
2023-01-03T15:45:58.538Z,102563.53
2023-01-03T15:48:27.326Z,102562.81
2023-01-03T15:50:57.201Z,102559.31
2023-01-03T15:53:27.798Z,102556.63
2023-01-03T15:56:00.441Z,102554.97
2023-01-03T15:58:31.119Z,102554.06
2023-01-03T16:01:00.818Z,102546.97
2023-01-03T16:03:33.870Z,102546.22
2023-01-03T16:06:03.179Z,102543.41
2023-01-03T16:08:33.398Z,102546.06
2023-01-03T16:11:04.334Z,102545.25
2023-01-03T16:13:38.855Z,102542.53
2023-01-03T16:16:08.861Z,102540.75
2023-01-03T16:18:39.331Z,102539.88
2023-01-03T16:21:07.995Z,102537.94
2023-01-03T16:23:36.352Z,102542.44
2023-01-03T16:26:04.461Z,102529.22
2023-01-03T16:28:33.777Z,102533.72
2023-01-03T16:31:04.943Z,102532.03
2023-01-03T16:33:35.888Z,102539.97
2023-01-03T16:36:04.083Z,102534.00
2023-01-03T16:38:33.973Z,102538.19
2023-01-03T16:41:02.273Z,102534.59
2023-01-03T16:43:30.597Z,102526.53
2023-01-03T16:46:00.744Z,102529.28
2023-01-03T16:48:37.948Z,102522.09
2023-01-03T16:51:06.691Z,102518.63
2023-01-03T16:53:38.600Z,102521.50
2023-01-03T16:56:08.427Z,102526.75
2023-01-03T16:58:36.246Z,102524.09
2023-01-03T17:01:06.312Z,102515.97
2023-01-03T17:03:41.321Z,102514.16
2023-01-03T17:06:25.457Z,102515.09
2023-01-03T17:08:53.466Z,102508.94
2023-01-03T17:11:21.450Z,102502.63
2023-01-03T17:13:49.525Z,102504.56
2023-01-03T17:16:20.641Z,102507.03
2023-01-03T17:18:49.512Z,102498.16
2023-01-03T17:21:23.682Z,102501.66
2023-01-03T17:23:53.282Z,102501.59
2023-01-03T17:26:23.061Z,102501.50
2023-01-03T17:28:52.272Z,102503.41
2023-01-03T17:31:25.139Z,102499.78
2023-01-03T17:33:54.359Z,102489.13
2023-01-03T17:36:25.892Z,102490.88
2023-01-03T17:38:55.108Z,102489.97
2023-01-03T17:41:25.163Z,102488.34
2023-01-03T17:43:53.393Z,102486.72
2023-01-03T17:46:42.173Z,102484.16
2023-01-03T17:49:26.315Z,102479.97
2023-01-03T17:51:57.218Z,102484.38
2023-01-03T17:54:26.991Z,102484.50
2023-01-03T17:56:55.826Z,102484.41
2023-01-03T17:59:23.810Z,102478.94
2023-01-03T18:01:54.716Z,102480.78
2023-01-03T18:04:23.205Z,102480.69
2023-01-03T18:06:57.250Z,102482.44
2023-01-03T18:09:27.022Z,102486.00
2023-01-03T18:11:55.360Z,102486.03
2023-01-03T18:14:25.862Z,102471.94
2023-01-03T18:16:55.505Z,102470.13
2023-01-03T18:19:23.608Z,102469.19
2023-01-03T18:21:52.066Z,102455.75
2023-01-03T18:24:23.137Z,102454.81
2023-01-03T18:26:55.777Z,102451.34
2023-01-03T18:29:23.711Z,102452.34
2023-01-03T18:31:51.914Z,102446.09
2023-01-03T18:34:21.530Z,102453.19
2023-01-03T18:36:52.437Z,102447.22
2023-01-03T18:39:27.644Z,102452.59
2023-01-03T18:42:17.149Z,102447.53
2023-01-03T18:44:45.384Z,102450.44
2023-01-03T18:47:14.468Z,102446.88
2023-01-03T18:49:43.787Z,102445.25
2023-01-03T18:52:23.441Z,102438.25
2023-01-03T18:54:52.458Z,102442.88
2023-01-03T18:57:20.652Z,102443.81
2023-01-03T18:59:49.502Z,102439.63
2023-01-03T19:02:18.913Z,102436.22
2023-01-03T19:04:51.615Z,102439.75
2023-01-03T19:07:26.084Z,102434.56
2023-01-03T19:09:54.350Z,102425.63
2023-01-03T19:12:22.262Z,102425.59
2023-01-03T19:14:52.918Z,102416.66
2023-01-03T19:17:21.231Z,102412.06
2023-01-03T19:19:50.406Z,102409.75
2023-01-03T19:22:25.624Z,102413.19
2023-01-03T19:24:54.707Z,102408.72
2023-01-03T19:27:24.839Z,102407.03
2023-01-03T19:29:53.372Z,102406.81
2023-01-03T19:32:23.906Z,102406.75
2023-01-03T19:34:53.242Z,102397.00
2023-01-03T19:37:22.496Z,102383.69
2023-01-03T19:39:50.518Z,102389.88
2023-01-03T19:42:38.341Z,102384.78
2023-01-03T19:45:17.023Z,102366.91
2023-01-03T19:47:46.775Z,102366.75
2023-01-03T19:50:22.657Z,102367.41
2023-01-03T19:52:50.841Z,102366.56
2023-01-03T19:55:19.443Z,102360.28
2023-01-03T19:57:49.918Z,102362.00
2023-01-03T20:00:22.633Z,102364.06
2023-01-03T20:02:54.485Z,102364.75
2023-01-03T20:05:26.589Z,102362.00
2023-01-03T20:07:55.081Z,102362.63
2023-01-03T20:10:24.248Z,102343.22
2023-01-03T20:12:55.012Z,102361.03
2023-01-03T20:15:25.870Z,102349.44
2023-01-03T20:17:54.208Z,102338.13
2023-01-03T20:20:25.610Z,102343.50
2023-01-03T20:23:05.717Z,102346.13
2023-01-03T20:25:37.554Z,102350.41
2023-01-03T20:28:06.609Z,102332.81
2023-01-03T20:30:35.614Z,102333.75
2023-01-03T20:33:03.487Z,102330.19
2023-01-03T20:38:25.254Z,102327.88
2023-01-03T20:40:53.649Z,102327.94
2023-01-03T20:43:22.137Z,102320.88
2023-01-03T20:45:53.344Z,102315.59
2023-01-03T20:48:25.920Z,102315.69
2023-01-03T20:50:56.488Z,102324.75
2023-01-03T20:53:26.970Z,102318.50
2023-01-03T20:55:55.379Z,102307.97
2023-01-03T20:58:26.226Z,102306.34
2023-01-03T21:01:02.035Z,102292.13
2023-01-03T21:03:32.826Z,102286.97
2023-01-03T21:06:02.267Z,102284.38
2023-01-03T21:08:48.096Z,102281.81
2023-01-03T21:11:16.507Z,102270.59
2023-01-03T21:13:44.319Z,102262.00
2023-01-03T21:16:21.189Z,102260.16
2023-01-03T21:18:49.305Z,102250.53
2023-01-03T21:21:21.380Z,102244.41
2023-01-03T21:23:49.376Z,102243.66
2023-01-03T21:26:17.341Z,102234.91
2023-01-03T21:28:45.253Z,102239.22
2023-01-03T21:31:18.923Z,102239.19
2023-01-03T21:33:46.947Z,102226.78
2023-01-03T21:36:23.290Z,102234.72
2023-01-03T21:38:53.197Z,102227.78
2023-01-03T21:41:23.171Z,102229.59
2023-01-03T21:43:51.265Z,102226.94
2023-01-03T21:46:21.079Z,102220.59
2023-01-03T21:48:49.116Z,102222.28
2023-01-03T21:51:24.732Z,102218.75
2023-01-03T21:54:02.655Z,102219.56
2023-01-03T21:56:30.528Z,102212.50
2023-01-03T21:58:58.547Z,102214.31
2023-01-03T22:01:27.020Z,102214.06
2023-01-03T22:04:12.720Z,102202.41
2023-01-03T22:06:40.589Z,102202.38
2023-01-03T22:09:29.928Z,102193.47
2023-01-03T22:11:57.949Z,102195.25
2023-01-03T22:14:25.943Z,102198.69
2023-01-03T22:16:53.874Z,102197.69
2023-01-03T22:19:21.806Z,102204.81
2023-01-03T22:21:49.706Z,102201.22
2023-01-03T22:24:19.019Z,102186.19
2023-01-03T22:26:47.038Z,102186.00
2023-01-03T22:29:14.866Z,102177.97
2023-01-03T22:31:43.086Z,102164.78
2023-01-03T22:34:11.088Z,102167.44
2023-01-03T22:36:39.017Z,102171.00
2023-01-03T22:39:06.964Z,102161.16
2023-01-03T22:41:36.540Z,102145.94
2023-01-03T22:44:04.484Z,102139.75
2023-01-03T22:46:33.116Z,102132.53
2023-01-03T22:49:01.177Z,102134.34
2023-01-03T22:51:29.329Z,102122.84
2023-01-03T22:53:58.418Z,102122.00
2023-01-03T22:56:26.285Z,102126.59
2023-01-03T22:58:55.763Z,102134.72
2023-01-03T23:01:28.049Z,102125.06
2023-01-03T23:04:00.097Z,102113.41
2023-01-03T23:06:30.262Z,102112.47
2023-01-03T23:08:58.640Z,102105.34
2023-01-03T23:11:54.822Z,102115.06
2023-01-03T23:14:25.862Z,102105.97
2023-01-03T23:16:56.099Z,102098.81
2023-01-03T23:19:25.878Z,102104.84
2023-01-03T23:21:56.417Z,102103.03
2023-01-03T23:24:25.262Z,102097.53
2023-01-03T23:26:53.971Z,102088.63
2023-01-03T23:29:23.651Z,102072.06
2023-01-03T23:31:52.667Z,102067.75
2023-01-03T23:34:20.683Z,102054.31
2023-01-03T23:36:48.912Z,102033.34
2023-01-03T23:39:18.533Z,102033.41
2023-01-03T23:41:46.985Z,102034.97
2023-01-03T23:44:15.047Z,102026.44
2023-01-03T23:46:44.406Z,102027.75
2023-01-03T23:49:13.465Z,102010.75
2023-01-03T23:51:41.604Z,102015.31
2023-01-03T23:54:10.050Z,102010.09
2023-01-03T23:56:38.493Z,102000.41
2023-01-03T23:59:06.987Z,102013.72
